Pagina principale
METAR-TAF:

METAR-TAF

Aeroporti :

Aeroporto di Londra Stansted

Londra-Stansted, Inghilterra

latitudine: 51-53N, longitudine: 000-14E, altezza: 106 m

Osservazione

Il bollettino è stato emesso 32 minuti fa, alle 17:20 UTC
Vento 15 kt da est/nord-est
Temperature 20°C
Umidità 37%
Pressione 1023 hPa
Visibilità 10 km o più

METAR: EGSS 311720Z AUTO 07015KT 9999 NCD 20/05 Q1023

Ora: 18:52 (17:52 UTC)

Previsione

Il bollettino è stato emesso 54 minuti fa, alle 16:58 UTC
Previsione valida dal 31 alle 18 UTC al 01 alle 24 UTC
Vento 16 kt da est/nord-est
Visibilità 10 km o più
nessuna nube inferiore a 1500 m e nessun cumulonembo
Evoluzione graduale
dal 31 alle 19 UTC al 31 alle 22 UTC
Vento 6 kt da nord-est

TAF: EGSS 311658Z 3118/0124 07016KT CAVOK BECMG 3119/3122 04006KT

Osservazioni e previsioni meteorologiche di più di 4000 aeroporti (messaggi METAR e TAF).

Le stazioni disponibili sono rappresentate dai dischi gialli e rossi sulla carta.

Puntare il mouse per vedere il nome della stazione.

Clicca sopra per visualizzare le osservazioni e previsioni meteorologiche.

Per cambiare la mappa : fare clic sui pulsanti verdi con una croce nera per ingrandire, il pulsante verde con un trattino per diminuire, o sulla freccia verde per le mappe adiacenti.


METAR-TAF: